AirNav   Air Wisconsin Up To $57,000 Bonus
 
 1232 users online  

WI23 Cornucopia Field Airport
Cornucopia, Wisconsin, USA

GOING TO CORNUCOPIA?


FAA INFORMATION EFFECTIVE 20 JUNE 2019

Location

FAA Identifier: WI23
Lat/Long: 46-51-59.7550N / 091-05-00.6710W
46-51.995917N / 091-05.011183W
46.8665986 / -91.0835197
(estimated)
Elevation: 760 ft. / 232 m (estimated)
Variation: 01E (1985)
From city: 1 mile W of CORNUCOPIA, WI
Time zone: UTC -5 (UTC -6 during Standard Time)
Zip code: 54827

Airport Operations

Airport use: Private use. Permission required prior to landing
Activation date: 07/1968
Control tower: no
ARTCC: MINNEAPOLIS CENTER
FSS: GREEN BAY FLIGHT SERVICE STATION
Attendance: UNATNDD
Wind indicator: yes
Segmented circle: no

Airport Communications

WX AWOS-3PT at 4R5 (14 nm E): 119.375 (715-747-5519)

Nearby radio navigation aids

NDB name  Hdg/Dist  Freq  Var  ID
SILVER BAY150/26.735000EBFW -... ..-. .--

Airport Services

Parking: tiedowns
Airframe service: NONE
Powerplant service: NONE

Runway Information

Runway 5/23

Dimensions: 2010 x 80 ft. / 613 x 24 m
Surface: turf, in fair condition
RUNWAY 5  RUNWAY 23
Traffic pattern: leftleft
Obstructions: 5 ft. brush, 45 ft. right of centerline4 ft. trees, 54 ft. right of centerline

Airport Ownership and Management from official FAA records

Ownership: Publicly-owned
Owner: TOWN OF BELL
CORNUCOPIA MEN CLUB; BOX 113
CORNUCOPIA, WI 54827
Phone 715-742-3470
Manager: TIM KASENO
BOX 274
CORNUCOPIA, WI 54827
Phone 612-877-1095

Airport Operational Statistics

Aircraft operations: 200/year *
100% transient general aviation
* for 12-month period ending 07 April 1987

Additional Remarks

RY 05/23 HAS A 110' STWY ON SW END & 80' STWY ON NE END.
TERRAIN DROPS OFF APRXLY 8-10' IN LAST 200' OF RWY/STOPWAY SOUTHWEST END RWY 05/23.
FOR CD CTC MINNEAPOLIS ARTCC AT 651-463-5588.

Instrument Procedures

There are no published instrument procedures at WI23.

Some nearby airports with instrument procedures:

4R5 - Major Gilbert Field Airport (14 nm E)
KASX - John F Kennedy Memorial Airport (20 nm S)
KTWM - Richard B Helgeson Airport (29 nm W)
3CU - Cable Union Airport (41 nm S)
KSUW - Richard I Bong Airport (43 nm W)
 
Loc | Ops | Rwys | IFR | FBO | Links
Com | Nav | Svcs | Stats | Notes
Area around WI23 (Cornucopia Field Airport)
 
Road maps at: MapQuest Bing Google
 
Aerial photo
No photo
 
Sectional chart

 
Airport distance calculator
Flying to Cornucopia Field Airport? Find the distance to fly.

From to WI23

Sunrise and sunset
Times for 25-Jun-2019
 Local
(UTC-5)
 Zulu
(UTC)
Morning civil twilight04:3209:32
Sunrise05:1210:12
Sunset21:0202:02
Evening civil twilight21:4202:42

Current date and time
Zulu (UTC)  25-Jun-2019 13:05:42
Local (UTC-5)  25-Jun-2019 08:05:42
 
METAR
K4R5 
14nm E 
251255Z AUTO 23004KT 10SM CLR 17/14 A2962 RMK AO2 T01710135
KASX 
20nm S 
251253Z AUTO 24008KT 10SM CLR 17/14 A2965 RMK AO2 SLP041 T01670144
KBFW 
24nm NW 
251235Z AUTO 24003KT 10SM CLR 16/13 A2960 RMK AO2
TAF
KIWD 
45nm SE 
251133Z 2512/2612 23008KT P6SM SKC FM251900 25013G20KT P6SM VCSH SCT100 FM252200 26010G19KT P6SM VCSH SCT070 FM260200 26008KT P6SM SCT100
KDLH 
46nm W 
251120Z 2512/2612 27008KT P6SM SCT110 FM251700 26013G20KT P6SM VCSH SCT040 FM251900 27013G22KT P6SM -RA VCTS BKN050CB FM252200 28012G23KT P6SM VCSH SCT060 FM260000 29012G19KT P6SM SCT100 FM260100 27006KT P6SM SKC
NOTAMs
Click for the latest NOTAMs
NOTAMs are issued by the DoD/FAA and will open in a separate window not controlled by AirNav.

 

 
 

Would you like to see your business listed on this page?

 If your business provides an interesting product or service to pilots, flight crews, aircraft, or users of the Cornucopia Field Airport, you should consider listing it here.  To start the listing process, click on the button below
 
Add a business
 

Other Pages about Cornucopia Field Airport

Update a link
 
Copyright © AirNav, LLC. All rights reserved. Privacy Policy  Contact